sensor_id;sensor_type;location;lat;lon;timestamp;temperature;humidity
20162;DHT22;51382;53.180;15.414;2023-05-07T00:12:52;6.80;99.90
20162;DHT22;51382;53.180;15.414;2023-05-07T00:27:59;6.40;99.90
20162;DHT22;51382;53.180;15.414;2023-05-07T00:43:08;6.20;99.90
20162;DHT22;51382;53.180;15.414;2023-05-07T00:58:16;5.90;99.90
20162;DHT22;51382;53.180;15.414;2023-05-07T01:13:25;5.80;99.90
20162;DHT22;51382;53.180;15.414;2023-05-07T01:28:33;5.40;99.90
20162;DHT22;51382;53.180;15.414;2023-05-07T01:43:45;5.30;99.90
20162;DHT22;51382;53.180;15.414;2023-05-07T01:58:52;5.40;99.90
20162;DHT22;51382;53.180;15.414;2023-05-07T02:14:05;5.40;99.90
20162;DHT22;51382;53.180;15.414;2023-05-07T02:29:12;5.30;99.90
20162;DHT22;51382;53.180;15.414;2023-05-07T02:44:19;5.20;99.90
20162;DHT22;51382;53.180;15.414;2023-05-07T02:59:31;5.10;99.90
20162;DHT22;51382;53.180;15.414;2023-05-07T03:14:38;5.10;99.90
20162;DHT22;51382;53.180;15.414;2023-05-07T03:29:45;5.20;99.90
20162;DHT22;51382;53.180;15.414;2023-05-07T03:44:52;5.20;99.90
20162;DHT22;51382;53.180;15.414;2023-05-07T04:00:05;5.20;99.90
20162;DHT22;51382;53.180;15.414;2023-05-07T04:15:24;5.60;99.90
20162;DHT22;51382;53.180;15.414;2023-05-07T04:30:35;11.40;99.90
20162;DHT22;51382;53.180;15.414;2023-05-07T04:45:49;13.20;95.90
20162;DHT22;51382;53.180;15.414;2023-05-07T05:01:04;14.40;92.80
20162;DHT22;51382;53.180;15.414;2023-05-07T05:16:16;13.30;92.30
20162;DHT22;51382;53.180;15.414;2023-05-07T05:31:23;13.80;91.10
20162;DHT22;51382;53.180;15.414;2023-05-07T05:46:29;16.20;78.90
20162;DHT22;51382;53.180;15.414;2023-05-07T06:01:42;14.10;87.70
20162;DHT22;51382;53.180;15.414;2023-05-07T06:16:49;11.10;95.20
20162;DHT22;51382;53.180;15.414;2023-05-07T06:32:08;16.50;78.40
20162;DHT22;51382;53.180;15.414;2023-05-07T06:47:22;14.10;84.10
20162;DHT22;51382;53.180;15.414;2023-05-07T07:02:30;16.30;70.80
20162;DHT22;51382;53.180;15.414;2023-05-07T07:17:37;18.30;65.50
20162;DHT22;51382;53.180;15.414;2023-05-07T07:32:50;18.30;63.90
20162;DHT22;51382;53.180;15.414;2023-05-07T07:47:57;19.10;60.90
20162;DHT22;51382;53.180;15.414;2023-05-07T08:03:06;19.40;57.80
20162;DHT22;51382;53.180;15.414;2023-05-07T08:18:21;18.80;57.90
20162;DHT22;51382;53.180;15.414;2023-05-07T08:33:35;19.20;56.30
20162;DHT22;51382;53.180;15.414;2023-05-07T08:48:45;19.70;55.10
20162;DHT22;51382;53.180;15.414;2023-05-07T09:03:54;19.10;51.80
20162;DHT22;51382;53.180;15.414;2023-05-07T09:19:06;18.40;49.50
20162;DHT22;51382;53.180;15.414;2023-05-07T09:34:20;15.00;57.00
20162;DHT22;51382;53.180;15.414;2023-05-07T09:49:28;14.60;59.60
20162;DHT22;51382;53.180;15.414;2023-05-07T10:04:41;15.30;56.60
20162;DHT22;51382;53.180;15.414;2023-05-07T10:19:49;15.00;58.70
20162;DHT22;51382;53.180;15.414;2023-05-07T10:34:59;14.90;60.00
20162;DHT22;51382;53.180;15.414;2023-05-07T10:50:24;14.50;61.50
20162;DHT22;51382;53.180;15.414;2023-05-07T11:05:38;14.80;63.70
20162;DHT22;51382;53.180;15.414;2023-05-07T11:20:57;14.60;63.80
20162;DHT22;51382;53.180;15.414;2023-05-07T11:36:24;15.00;62.30
20162;DHT22;51382;53.180;15.414;2023-05-07T11:51:36;15.40;62.50
20162;DHT22;51382;53.180;15.414;2023-05-07T12:06:46;14.60;62.80
20162;DHT22;51382;53.180;15.414;2023-05-07T12:21:59;14.90;61.10
20162;DHT22;51382;53.180;15.414;2023-05-07T12:37:11;15.10;62.90
20162;DHT22;51382;53.180;15.414;2023-05-07T12:52:31;15.10;62.00
20162;DHT22;51382;53.180;15.414;2023-05-07T13:07:53;15.00;60.70
20162;DHT22;51382;53.180;15.414;2023-05-07T13:23:07;15.20;61.50
20162;DHT22;51382;53.180;15.414;2023-05-07T13:38:19;14.90;62.10
20162;DHT22;51382;53.180;15.414;2023-05-07T13:53:25;15.00;59.20
20162;DHT22;51382;53.180;15.414;2023-05-07T14:08:38;15.30;60.00
20162;DHT22;51382;53.180;15.414;2023-05-07T14:23:53;15.40;60.80
20162;DHT22;51382;53.180;15.414;2023-05-07T14:39:05;15.20;60.00
20162;DHT22;51382;53.180;15.414;2023-05-07T14:54:13;15.20;63.60
20162;DHT22;51382;53.180;15.414;2023-05-07T15:09:20;15.20;66.80
20162;DHT22;51382;53.180;15.414;2023-05-07T15:24:32;15.20;63.60
20162;DHT22;51382;53.180;15.414;2023-05-07T15:39:40;15.00;64.70
20162;DHT22;51382;53.180;15.414;2023-05-07T15:54:52;14.70;65.50
20162;DHT22;51382;53.180;15.414;2023-05-07T16:10:00;14.60;63.90
20162;DHT22;51382;53.180;15.414;2023-05-07T16:25:09;14.50;64.60
20162;DHT22;51382;53.180;15.414;2023-05-07T16:40:20;14.20;63.60
20162;DHT22;51382;53.180;15.414;2023-05-07T16:55:32;13.80;64.20
20162;DHT22;51382;53.180;15.414;2023-05-07T17:10:41;13.30;66.20
20162;DHT22;51382;53.180;15.414;2023-05-07T17:25:51;13.60;67.00
20162;DHT22;51382;53.180;15.414;2023-05-07T17:41:03;13.30;68.20
20162;DHT22;51382;53.180;15.414;2023-05-07T17:56:11;12.90;71.20
20162;DHT22;51382;53.180;15.414;2023-05-07T18:11:19;12.40;72.90
20162;DHT22;51382;53.180;15.414;2023-05-07T18:26:29;11.90;74.60
20162;DHT22;51382;53.180;15.414;2023-05-07T18:41:38;11.50;75.80
20162;DHT22;51382;53.180;15.414;2023-05-07T18:56:52;11.00;78.40
20162;DHT22;51382;53.180;15.414;2023-05-07T19:12:05;10.30;83.00
20162;DHT22;51382;53.180;15.414;2023-05-07T19:27:12;9.50;88.40
20162;DHT22;51382;53.180;15.414;2023-05-07T19:55:34;8.80;94.10
20162;DHT22;51382;53.180;15.414;2023-05-07T20:10:46;7.90;98.40
20162;DHT22;51382;53.180;15.414;2023-05-07T20:25:57;7.50;99.90
20162;DHT22;51382;53.180;15.414;2023-05-07T20:41:09;7.40;99.90
20162;DHT22;51382;53.180;15.414;2023-05-07T20:56:21;7.20;99.90
20162;DHT22;51382;53.180;15.414;2023-05-07T21:11:33;6.80;99.90
20162;DHT22;51382;53.180;15.414;2023-05-07T21:26:44;6.70;99.90
20162;DHT22;51382;53.180;15.414;2023-05-07T21:41:51;6.60;99.90
20162;DHT22;51382;53.180;15.414;2023-05-07T21:57:04;6.30;99.90
20162;DHT22;51382;53.180;15.414;2023-05-07T22:12:15;6.30;99.90
20162;DHT22;51382;53.180;15.414;2023-05-07T22:27:26;5.40;99.90
20162;DHT22;51382;53.180;15.414;2023-05-07T22:42:38;5.40;99.90
20162;DHT22;51382;53.180;15.414;2023-05-07T22:57:49;5.50;99.90
20162;DHT22;51382;53.180;15.414;2023-05-07T23:13:01;5.40;99.90
20162;DHT22;51382;53.180;15.414;2023-05-07T23:28:20;5.20;99.90
20162;DHT22;51382;53.180;15.414;2023-05-07T23:43:31;5.20;99.90
20162;DHT22;51382;53.180;15.414;2023-05-07T23:58:42;5.00;99.90
